createdAt,value
2019-02-02T00:00:17.490Z,36.50
2019-02-02T00:02:45.919Z,35.57
2019-02-02T00:05:12.498Z,39.33
2019-02-02T00:07:38.820Z,39.90
2019-02-02T00:10:06.707Z,41.13
2019-02-02T00:12:33.083Z,39.93
2019-02-02T00:14:59.655Z,40.83
2019-02-02T00:17:27.296Z,37.93
2019-02-02T00:19:55.805Z,40.43
2019-02-02T00:22:21.849Z,39.77
2019-02-02T00:24:48.428Z,35.53
2019-02-02T00:27:15.108Z,42.13
2019-02-02T00:29:41.727Z,39.77
2019-02-02T00:32:08.040Z,41.97
2019-02-02T00:34:34.353Z,40.80
2019-02-02T00:37:00.679Z,40.17
2019-02-02T00:39:27.108Z,38.03
2019-02-02T00:41:53.439Z,42.40
2019-02-02T00:44:19.767Z,39.40
2019-02-02T00:46:46.098Z,41.70
2019-02-02T00:49:12.452Z,41.60
2019-02-02T00:51:38.776Z,39.50
2019-02-02T00:54:05.388Z,38.07
2019-02-02T00:56:31.992Z,39.70
2019-02-02T00:58:58.318Z,41.17
2019-02-02T01:01:24.825Z,41.80
2019-02-02T01:03:51.242Z,40.30
2019-02-02T01:06:17.788Z,41.30
2019-02-02T01:08:44.111Z,38.33
2019-02-02T01:11:11.261Z,41.13
2019-02-02T01:13:37.581Z,40.03
2019-02-02T01:16:04.588Z,39.77
2019-02-02T01:18:31.146Z,37.10
2019-02-02T01:20:57.473Z,35.53
2019-02-02T01:23:23.803Z,40.77
2019-02-02T01:25:50.127Z,39.03
2019-02-02T01:28:16.471Z,36.33
2019-02-02T01:30:43.086Z,36.83
2019-02-02T01:33:09.663Z,33.50
2019-02-02T01:35:35.980Z,39.30
2019-02-02T01:38:02.497Z,34.87
2019-02-02T01:40:29.079Z,40.40
2019-02-02T01:42:55.755Z,35.87
2019-02-02T01:45:24.728Z,39.17
2019-02-02T01:47:51.625Z,38.97
2019-02-02T01:50:23.985Z,42.63
2019-02-02T01:52:50.380Z,39.43
2019-02-02T01:55:17.294Z,40.33
2019-02-02T01:57:43.937Z,43.23
2019-02-02T02:00:20.790Z,41.37
2019-02-02T02:02:47.081Z,39.77
2019-02-02T02:05:13.744Z,41.87
2019-02-02T02:07:41.827Z,39.07
2019-02-02T02:10:14.905Z,44.10
2019-02-02T02:12:42.307Z,43.40
2019-02-02T02:15:12.521Z,41.83
2019-02-02T02:17:39.028Z,40.67
2019-02-02T02:20:09.163Z,39.20
2019-02-02T02:22:41.198Z,38.23
2019-02-02T02:25:09.558Z,36.00
2019-02-02T02:27:36.159Z,40.70
2019-02-02T02:30:08.801Z,39.10
2019-02-02T02:32:35.320Z,38.47
2019-02-02T02:35:02.788Z,38.07
2019-02-02T02:37:29.209Z,37.40
2019-02-02T02:39:55.548Z,37.77
2019-02-02T02:42:22.155Z,38.40
2019-02-02T02:44:48.537Z,40.53
2019-02-02T02:47:15.899Z,38.23
2019-02-02T02:49:42.263Z,50.40
2019-02-02T02:52:08.853Z,38.60
2019-02-02T02:54:35.197Z,39.40
2019-02-02T02:57:01.628Z,37.10
2019-02-02T02:59:27.947Z,40.17
2019-02-02T03:01:54.536Z,38.83
2019-02-02T03:04:21.165Z,39.13
2019-02-02T03:06:47.959Z,38.10
2019-02-02T03:09:14.543Z,39.50
2019-02-02T03:11:41.147Z,38.73
2019-02-02T03:14:07.878Z,38.93
2019-02-02T03:16:34.266Z,39.50
2019-02-02T03:19:00.908Z,39.90
2019-02-02T03:21:27.252Z,38.80
2019-02-02T03:23:53.545Z,38.33
2019-02-02T03:26:20.138Z,38.70
2019-02-02T03:28:53.505Z,36.23
2019-02-02T03:31:14.661Z,38.23
2019-02-02T03:33:40.964Z,37.40
2019-02-02T03:36:07.278Z,37.10
2019-02-02T03:38:33.874Z,38.33
2019-02-02T03:41:00.165Z,40.27
2019-02-02T03:43:26.496Z,33.03
2019-02-02T03:45:52.957Z,38.30
2019-02-02T03:48:19.269Z,35.63
2019-02-02T03:50:45.617Z,35.53
2019-02-02T03:53:13.616Z,37.30
2019-02-02T03:55:40.440Z,35.83
2019-02-02T03:58:06.743Z,36.27
2019-02-02T04:00:33.113Z,38.70
2019-02-02T04:02:59.403Z,39.33
2019-02-02T04:05:28.503Z,36.37
2019-02-02T04:07:55.037Z,38.97
2019-02-02T04:10:21.602Z,39.20
2019-02-02T04:12:48.185Z,36.67
2019-02-02T04:15:18.607Z,37.80
2019-02-02T04:17:45.243Z,36.93
2019-02-02T04:20:15.457Z,36.83
2019-02-02T04:22:41.883Z,37.37
2019-02-02T04:25:08.860Z,37.67
2019-02-02T04:27:35.178Z,38.33
2019-02-02T04:30:03.480Z,35.47
2019-02-02T04:32:30.308Z,32.30
2019-02-02T04:34:56.868Z,34.23
2019-02-02T04:37:23.473Z,32.80
2019-02-02T04:39:49.771Z,36.07
2019-02-02T04:42:16.402Z,34.30
2019-02-02T04:44:42.730Z,37.03
2019-02-02T04:47:10.061Z,35.40
2019-02-02T04:49:36.362Z,33.30
2019-02-02T04:52:02.826Z,35.63
2019-02-02T04:54:29.150Z,34.57
2019-02-02T04:56:55.892Z,31.73
2019-02-02T04:59:29.015Z,35.27
2019-02-02T05:01:50.432Z,38.93
2019-02-02T05:04:17.094Z,36.10
2019-02-02T05:06:43.410Z,35.30
2019-02-02T05:09:09.715Z,36.77
2019-02-02T05:11:36.054Z,34.70
2019-02-02T05:14:02.967Z,37.03
2019-02-02T05:16:29.293Z,35.30
2019-02-02T05:18:55.621Z,33.20
2019-02-02T05:21:21.930Z,33.20
2019-02-02T05:23:48.263Z,38.03
2019-02-02T05:26:14.581Z,33.47
2019-02-02T05:28:40.910Z,36.47
2019-02-02T05:31:07.470Z,40.87
2019-02-02T05:33:33.968Z,40.03
2019-02-02T05:36:00.589Z,39.87
2019-02-02T05:38:26.926Z,37.77
2019-02-02T05:40:54.478Z,38.13
2019-02-02T05:43:20.917Z,38.07
2019-02-02T05:45:47.443Z,41.10
2019-02-02T05:48:13.795Z,42.90
2019-02-02T05:50:40.112Z,37.77
2019-02-02T05:53:06.734Z,39.00
2019-02-02T05:55:33.308Z,38.07
2019-02-02T05:57:59.798Z,34.73
2019-02-02T06:00:36.888Z,36.30
2019-02-02T06:03:03.720Z,35.07
2019-02-02T06:05:30.039Z,37.63
2019-02-02T06:07:56.352Z,35.33
2019-02-02T06:10:22.966Z,36.23
2019-02-02T06:12:49.536Z,36.30
2019-02-02T06:15:16.179Z,34.17
2019-02-02T06:17:42.460Z,36.87
2019-02-02T06:20:12.686Z,34.50
2019-02-02T06:22:39.052Z,36.07
2019-02-02T06:25:09.636Z,36.57
2019-02-02T06:27:35.992Z,39.40
2019-02-02T06:30:08.260Z,37.53
2019-02-02T06:32:34.610Z,38.13
2019-02-02T06:35:01.227Z,38.53
2019-02-02T06:37:27.946Z,37.87
2019-02-02T06:39:54.505Z,34.67
2019-02-02T06:42:20.813Z,40.10
2019-02-02T06:44:47.119Z,37.67
2019-02-02T06:47:13.448Z,41.03
2019-02-02T06:49:39.782Z,38.70
2019-02-02T06:52:06.332Z,36.53
2019-02-02T06:54:33.915Z,36.30
2019-02-02T06:57:00.392Z,37.73
2019-02-02T06:59:26.993Z,38.80
2019-02-02T07:01:54.613Z,38.30
2019-02-02T07:04:20.949Z,41.30
2019-02-02T07:06:47.525Z,36.53
2019-02-02T07:09:14.000Z,35.97
2019-02-02T07:11:40.305Z,39.20
2019-02-02T07:14:07.038Z,40.97
2019-02-02T07:16:33.624Z,42.20
2019-02-02T07:18:59.930Z,40.73
2019-02-02T07:21:26.265Z,43.20
2019-02-02T07:23:52.843Z,37.47
2019-02-02T07:26:19.389Z,38.57
2019-02-02T07:28:46.003Z,38.90
2019-02-02T07:31:12.562Z,41.27
2019-02-02T07:33:39.155Z,36.20
2019-02-02T07:36:05.502Z,41.03
2019-02-02T07:38:31.843Z,39.37
2019-02-02T07:40:58.209Z,40.97
2019-02-02T07:43:24.871Z,38.77
2019-02-02T07:45:51.269Z,36.97
2019-02-02T07:48:17.874Z,41.97
2019-02-02T07:50:44.623Z,40.53
2019-02-02T07:53:10.962Z,39.60
2019-02-02T07:55:37.623Z,37.27
2019-02-02T07:58:04.050Z,38.07
2019-02-02T08:00:40.695Z,39.23
2019-02-02T08:03:05.623Z,37.63
2019-02-02T08:05:32.014Z,37.23
2019-02-02T08:07:59.383Z,37.87
2019-02-02T08:10:25.720Z,35.37
2019-02-02T08:12:52.277Z,36.50
2019-02-02T08:15:25.468Z,39.50
2019-02-02T08:17:51.756Z,38.10
2019-02-02T08:20:18.492Z,36.70
2019-02-02T08:22:44.975Z,38.50
2019-02-02T08:25:14.253Z,41.17
2019-02-02T08:27:40.827Z,38.17
2019-02-02T08:30:17.647Z,39.87
2019-02-02T08:32:45.527Z,38.53
2019-02-02T08:35:12.528Z,37.77
2019-02-02T08:37:40.555Z,39.40
2019-02-02T08:40:11.383Z,39.63
2019-02-02T08:42:38.068Z,39.77
2019-02-02T08:45:07.291Z,39.53
2019-02-02T08:47:33.595Z,39.63
2019-02-02T08:49:59.933Z,39.87
2019-02-02T08:52:26.553Z,39.53
2019-02-02T08:54:52.927Z,39.53
2019-02-02T08:57:19.373Z,38.07
2019-02-02T08:59:45.999Z,39.40
2019-02-02T09:02:12.753Z,38.07
2019-02-02T09:04:39.116Z,37.70
2019-02-02T09:07:05.823Z,38.87
2019-02-02T09:09:33.143Z,38.83
2019-02-02T09:11:59.730Z,39.43
2019-02-02T09:14:26.047Z,42.67
2019-02-02T09:16:52.389Z,40.77
2019-02-02T09:19:18.682Z,37.13
2019-02-02T09:21:45.047Z,38.93
2019-02-02T09:24:11.633Z,39.40
2019-02-02T09:26:38.214Z,38.60
2019-02-02T09:29:04.790Z,38.90
2019-02-02T09:31:31.131Z,40.53
2019-02-02T09:33:57.425Z,39.33
2019-02-02T09:36:24.021Z,40.00
2019-02-02T09:38:50.598Z,40.00
2019-02-02T09:41:16.927Z,42.83
2019-02-02T09:43:43.241Z,39.07
2019-02-02T09:46:09.560Z,41.57
2019-02-02T09:48:35.881Z,38.67
2019-02-02T09:51:02.210Z,38.87
2019-02-02T09:53:28.565Z,41.47
2019-02-02T09:55:55.130Z,39.17
2019-02-02T09:58:21.693Z,40.10
2019-02-02T10:00:48.265Z,41.80
2019-02-02T10:03:14.836Z,38.90
2019-02-02T10:05:41.651Z,43.50
2019-02-02T10:08:08.109Z,39.23
2019-02-02T10:10:34.817Z,44.40
2019-02-02T10:13:01.366Z,41.60
2019-02-02T10:15:28.123Z,38.43
2019-02-02T10:17:55.025Z,37.10
2019-02-02T10:20:26.710Z,41.07
2019-02-02T10:22:54.501Z,40.07
2019-02-02T10:25:26.495Z,41.17
2019-02-02T10:27:52.945Z,45.53
2019-02-02T10:30:37.277Z,46.40
2019-02-02T10:33:04.586Z,43.90
2019-02-02T10:35:31.180Z,42.63
2019-02-02T10:37:57.491Z,41.83
2019-02-02T10:40:24.287Z,41.70
2019-02-02T10:42:50.633Z,42.37
2019-02-02T10:45:17.435Z,41.80
2019-02-02T10:47:44.545Z,42.07
2019-02-02T10:50:20.574Z,46.47
2019-02-02T10:52:47.278Z,42.90
2019-02-02T10:55:14.615Z,46.40
2019-02-02T10:57:42.510Z,48.30
2019-02-02T11:00:18.631Z,47.40
2019-02-02T11:02:45.985Z,47.20
2019-02-02T11:05:13.426Z,44.90
2019-02-02T11:07:39.771Z,44.67
2019-02-02T11:10:11.513Z,47.10
2019-02-02T11:12:38.126Z,45.07
2019-02-02T11:15:10.589Z,43.77
2019-02-02T11:17:36.967Z,46.87
2019-02-02T11:20:08.970Z,43.07
2019-02-02T11:22:39.671Z,44.80
2019-02-02T11:25:11.390Z,45.17
2019-02-02T11:27:37.818Z,47.03
2019-02-02T11:30:11.777Z,46.97
2019-02-02T11:32:38.248Z,45.87
2019-02-02T11:35:09.372Z,46.40
2019-02-02T11:37:35.693Z,45.00
2019-02-02T11:40:07.103Z,45.93
2019-02-02T11:42:33.777Z,47.50
2019-02-02T11:45:00.112Z,47.37
2019-02-02T11:47:26.634Z,47.93
2019-02-02T11:49:53.223Z,47.97
2019-02-02T11:52:19.542Z,46.17
2019-02-02T11:54:45.884Z,44.17
2019-02-02T11:57:12.239Z,43.87
2019-02-02T11:59:38.583Z,44.63
2019-02-02T12:02:14.236Z,41.27
2019-02-02T12:04:33.124Z,43.40
2019-02-02T12:06:59.450Z,41.97
2019-02-02T12:09:25.746Z,41.00
2019-02-02T12:11:52.334Z,39.23
2019-02-02T12:14:18.935Z,37.63
2019-02-02T12:16:45.495Z,41.27
2019-02-02T12:19:12.060Z,39.13
2019-02-02T12:21:39.376Z,38.00
2019-02-02T12:24:13.270Z,39.97
2019-02-02T12:26:34.175Z,42.20
2019-02-02T12:29:00.799Z,38.17
2019-02-02T12:31:27.439Z,39.53
2019-02-02T12:33:54.081Z,40.10
2019-02-02T12:36:20.385Z,38.03
2019-02-02T12:38:46.958Z,41.63
2019-02-02T12:41:13.275Z,39.53
2019-02-02T12:43:39.916Z,39.20
2019-02-02T12:46:06.825Z,39.67
2019-02-02T12:48:33.375Z,39.50
2019-02-02T12:50:59.718Z,36.70
2019-02-02T12:53:26.049Z,35.50
2019-02-02T12:55:52.617Z,37.00
2019-02-02T12:58:18.921Z,36.90
2019-02-02T13:00:45.734Z,38.67
2019-02-02T13:03:12.412Z,38.80
2019-02-02T13:05:39.225Z,36.70
2019-02-02T13:08:05.864Z,36.80
2019-02-02T13:10:32.175Z,36.77
2019-02-02T13:12:58.505Z,36.60
2019-02-02T13:15:25.182Z,39.00
2019-02-02T13:17:51.896Z,34.70
2019-02-02T13:20:18.631Z,38.50
2019-02-02T13:22:45.048Z,40.10
2019-02-02T13:25:20.338Z,36.57
2019-02-02T13:27:46.622Z,36.93
2019-02-02T13:30:17.761Z,36.70
2019-02-02T13:32:49.749Z,35.00
2019-02-02T13:35:15.011Z,35.77
2019-02-02T13:37:41.269Z,36.67
2019-02-02T13:40:13.127Z,37.60
2019-02-02T13:42:39.707Z,37.77
2019-02-02T13:45:08.282Z,38.60
2019-02-02T13:47:34.862Z,34.53
2019-02-02T13:50:01.468Z,37.40
2019-02-02T13:52:28.132Z,36.33
2019-02-02T13:54:54.547Z,34.40
2019-02-02T13:57:20.875Z,37.83
2019-02-02T13:59:47.223Z,37.90
2019-02-02T14:02:13.516Z,39.70
2019-02-02T14:04:39.868Z,35.93
2019-02-02T14:07:17.455Z,37.90
2019-02-02T14:09:34.421Z,35.63
2019-02-02T14:12:00.731Z,39.33
2019-02-02T14:14:27.392Z,38.97
2019-02-02T14:16:53.669Z,36.70
2019-02-02T14:19:20.001Z,35.90
2019-02-02T14:21:46.347Z,37.17
2019-02-02T14:24:12.913Z,38.00
2019-02-02T14:26:39.303Z,37.90
2019-02-02T14:29:05.726Z,39.17
2019-02-02T14:31:32.063Z,38.57
2019-02-02T14:33:58.375Z,38.10
2019-02-02T14:36:24.707Z,37.93
2019-02-02T14:38:51.055Z,46.67
2019-02-02T14:41:17.695Z,41.87
2019-02-02T14:43:44.538Z,38.70
2019-02-02T14:46:11.221Z,41.97
2019-02-02T14:48:37.956Z,41.03
2019-02-02T14:51:04.434Z,42.90
2019-02-02T14:53:31.010Z,40.13
2019-02-02T14:55:57.347Z,39.97
2019-02-02T14:58:23.662Z,39.00
2019-02-02T15:00:49.979Z,38.73
2019-02-02T15:03:25.648Z,41.13
2019-02-02T15:05:44.506Z,37.80
2019-02-02T15:08:11.102Z,40.80
2019-02-02T15:10:37.653Z,42.07
2019-02-02T15:13:04.345Z,43.73
2019-02-02T15:15:30.974Z,42.10
2019-02-02T15:17:57.534Z,41.47
2019-02-02T15:20:32.826Z,42.20
2019-02-02T15:23:00.141Z,38.60
2019-02-02T15:25:26.952Z,43.53
2019-02-02T15:27:53.257Z,39.40
2019-02-02T15:30:24.935Z,41.57
2019-02-02T15:32:51.336Z,40.40
2019-02-02T15:35:17.753Z,43.40
2019-02-02T15:37:44.072Z,42.63
2019-02-02T15:40:15.166Z,43.63
2019-02-02T15:42:42.448Z,44.53
2019-02-02T15:45:16.512Z,43.60
2019-02-02T15:47:43.216Z,42.30
2019-02-02T15:50:14.335Z,47.70
2019-02-02T15:52:41.423Z,46.40
2019-02-02T15:55:20.321Z,43.60
2019-02-02T15:57:49.551Z,46.87
2019-02-02T16:00:21.238Z,49.63
2019-02-02T16:02:47.706Z,46.50
2019-02-02T16:05:17.324Z,47.57
2019-02-02T16:07:44.073Z,48.67
2019-02-02T16:10:19.540Z,47.77
2019-02-02T16:12:46.393Z,47.33
2019-02-02T16:15:13.028Z,49.07
2019-02-02T16:17:39.364Z,43.37
2019-02-02T16:20:18.318Z,38.73
2019-02-02T16:22:44.666Z,38.67
2019-02-02T16:25:15.304Z,36.17
2019-02-02T16:27:42.049Z,38.60
2019-02-02T16:30:21.956Z,38.13
2019-02-02T16:32:48.269Z,38.53
2019-02-02T16:35:14.617Z,39.30
2019-02-02T16:37:42.080Z,35.83
2019-02-02T16:40:13.803Z,37.60
2019-02-02T16:42:40.456Z,35.80
2019-02-02T16:45:17.916Z,37.97
2019-02-02T16:47:44.579Z,36.70
2019-02-02T16:50:16.561Z,35.63
2019-02-02T16:52:43.891Z,37.60
2019-02-02T16:55:13.830Z,37.10
2019-02-02T16:57:40.261Z,39.77
2019-02-02T17:00:12.456Z,37.03
2019-02-02T17:02:39.577Z,37.93
2019-02-02T17:05:09.298Z,37.47
2019-02-02T17:07:36.015Z,38.80
2019-02-02T17:10:15.164Z,37.40
2019-02-02T17:12:41.790Z,37.80
2019-02-02T17:15:10.132Z,39.97
2019-02-02T17:17:36.782Z,39.17
2019-02-02T17:20:22.813Z,39.47
2019-02-02T17:22:49.454Z,40.57
2019-02-02T17:25:18.064Z,35.77
2019-02-02T17:27:44.490Z,35.37
2019-02-02T17:30:18.592Z,38.43
2019-02-02T17:32:46.025Z,38.70
2019-02-02T17:35:14.905Z,38.40
2019-02-02T17:37:43.170Z,41.30
2019-02-02T17:40:20.942Z,40.33
2019-02-02T17:42:49.859Z,40.60
2019-02-02T17:45:18.939Z,39.17
2019-02-02T17:47:45.423Z,43.23
2019-02-02T17:50:21.696Z,42.90
2019-02-02T17:52:48.117Z,42.30
2019-02-02T17:55:14.742Z,42.93
2019-02-02T17:57:41.415Z,40.40
2019-02-02T18:00:23.745Z,40.47
2019-02-02T18:02:50.945Z,43.80
2019-02-02T18:05:17.715Z,38.67
2019-02-02T18:07:44.347Z,45.00
2019-02-02T18:10:14.806Z,42.00
2019-02-02T18:12:41.967Z,40.17
2019-02-02T18:15:12.018Z,38.57
2019-02-02T18:17:38.337Z,39.37
2019-02-02T18:20:10.606Z,39.70
2019-02-02T18:22:38.796Z,39.30
2019-02-02T18:25:15.248Z,39.80
2019-02-02T18:27:39.940Z,39.63
2019-02-02T18:30:20.895Z,40.23
2019-02-02T18:32:49.463Z,40.07
2019-02-02T18:35:16.277Z,39.77
2019-02-02T18:37:42.979Z,40.57
2019-02-02T18:40:18.848Z,40.30
2019-02-02T18:42:45.251Z,38.20
2019-02-02T18:45:17.418Z,38.00
2019-02-02T18:47:45.185Z,44.10
2019-02-02T18:50:16.280Z,38.47
2019-02-02T18:52:44.074Z,42.03
2019-02-02T18:55:25.731Z,42.80
2019-02-02T18:57:52.767Z,41.90
2019-02-02T19:00:20.195Z,41.33
2019-02-02T19:02:47.255Z,42.70
2019-02-02T19:05:17.334Z,40.27
2019-02-02T19:07:43.780Z,42.90
2019-02-02T19:10:19.794Z,40.87
2019-02-02T19:12:46.562Z,42.77
2019-02-02T19:15:13.028Z,45.77
2019-02-02T19:17:39.740Z,46.07
2019-02-02T19:20:13.585Z,43.40
2019-02-02T19:22:40.372Z,44.13
2019-02-02T19:25:09.143Z,43.87
2019-02-02T19:27:35.488Z,43.87
2019-02-02T19:30:05.735Z,41.70
2019-02-02T19:32:32.278Z,44.10
2019-02-02T19:34:58.834Z,41.37
2019-02-02T19:37:25.156Z,44.90
2019-02-02T19:39:51.502Z,45.40
2019-02-02T19:42:18.152Z,45.23
2019-02-02T19:44:44.533Z,44.37
2019-02-02T19:47:16.256Z,50.73
2019-02-02T19:49:39.129Z,43.47
2019-02-02T19:52:05.422Z,45.33
2019-02-02T19:54:32.841Z,46.33
2019-02-02T19:56:59.428Z,47.17
2019-02-02T19:59:25.809Z,49.60
2019-02-02T20:01:52.145Z,44.50
2019-02-02T20:04:18.657Z,45.13
2019-02-02T20:06:46.491Z,43.70
2019-02-02T20:09:13.323Z,47.13
2019-02-02T20:11:39.934Z,43.90
2019-02-02T20:14:06.287Z,43.83
2019-02-02T20:16:32.889Z,49.07
2019-02-02T20:18:59.210Z,47.40
2019-02-02T20:21:25.546Z,49.40
2019-02-02T20:23:51.957Z,47.23
2019-02-02T20:26:18.553Z,52.80
2019-02-02T20:28:46.760Z,49.17
2019-02-02T20:31:13.336Z,47.37
2019-02-02T20:33:39.875Z,48.90
2019-02-02T20:36:08.213Z,45.63
2019-02-02T20:38:34.625Z,46.53
2019-02-02T20:41:01.206Z,52.13
2019-02-02T20:43:27.867Z,48.33
2019-02-02T20:45:54.208Z,46.37
2019-02-02T20:48:20.870Z,47.77
2019-02-02T20:50:47.471Z,50.00
2019-02-02T20:53:14.468Z,49.13
2019-02-02T20:55:43.278Z,45.27
2019-02-02T20:58:11.999Z,49.57
2019-02-02T21:00:38.811Z,46.87
2019-02-02T21:03:05.666Z,45.43
2019-02-02T21:05:32.346Z,47.60
2019-02-02T21:07:58.735Z,44.47
2019-02-02T21:10:25.391Z,44.30
2019-02-02T21:12:51.881Z,47.47
2019-02-02T21:15:18.301Z,46.20
2019-02-02T21:17:45.262Z,48.20
2019-02-02T21:20:15.377Z,48.07
2019-02-02T21:22:42.182Z,46.20
2019-02-02T21:25:10.401Z,46.30
2019-02-02T21:27:36.931Z,46.00
2019-02-02T21:30:09.163Z,47.70
2019-02-02T21:32:35.660Z,47.57
2019-02-02T21:35:02.606Z,47.33
2019-02-02T21:37:30.321Z,49.63
2019-02-02T21:39:56.695Z,49.63
2019-02-02T21:42:23.354Z,47.47
2019-02-02T21:44:49.948Z,44.03
2019-02-02T21:47:16.643Z,40.27
2019-02-02T21:49:42.977Z,41.67
2019-02-02T21:52:09.714Z,42.70
2019-02-02T21:54:36.609Z,45.20
2019-02-02T21:57:03.210Z,42.57
2019-02-02T21:59:29.665Z,39.30
2019-02-02T22:01:57.040Z,40.83
2019-02-02T22:04:23.703Z,37.47
2019-02-02T22:06:50.009Z,39.53
2019-02-02T22:09:16.340Z,36.80
2019-02-02T22:11:44.619Z,36.77
2019-02-02T22:14:11.441Z,36.97
2019-02-02T22:16:37.779Z,39.03
2019-02-02T22:19:04.329Z,37.10
2019-02-02T22:21:31.039Z,38.30
2019-02-02T22:23:57.613Z,36.33
2019-02-02T22:26:24.208Z,35.57
2019-02-02T22:28:51.134Z,34.53
2019-02-02T22:31:17.721Z,33.73
2019-02-02T22:33:46.210Z,33.70
2019-02-02T22:36:12.794Z,34.30
2019-02-02T22:38:39.376Z,33.83
2019-02-02T22:41:07.049Z,34.00
2019-02-02T22:43:33.762Z,32.00
2019-02-02T22:46:00.079Z,34.80
2019-02-02T22:48:26.668Z,35.83
2019-02-02T22:50:53.243Z,33.90
2019-02-02T22:53:19.877Z,33.40
2019-02-02T22:55:46.524Z,34.80
2019-02-02T22:58:12.820Z,34.37
2019-02-02T23:00:55.891Z,34.70
2019-02-02T23:03:55.336Z,33.73
2019-02-02T23:06:45.363Z,33.97
2019-02-02T23:10:00.839Z,36.10
2019-02-02T23:12:56.403Z,32.97
2019-02-02T23:15:34.720Z,36.00
2019-02-02T23:18:02.255Z,38.53
2019-02-02T23:20:28.697Z,36.57
2019-02-02T23:22:55.032Z,36.07
2019-02-02T23:25:21.597Z,38.27
2019-02-02T23:27:47.956Z,40.97
2019-02-02T23:30:15.858Z,39.53
2019-02-02T23:32:42.196Z,37.97
2019-02-02T23:35:08.817Z,43.10
2019-02-02T23:37:35.499Z,41.07
2019-02-02T23:40:02.251Z,42.73
2019-02-02T23:42:28.828Z,38.80
2019-02-02T23:44:55.146Z,39.33
2019-02-02T23:47:22.459Z,44.40
2019-02-02T23:49:49.010Z,41.87
2019-02-02T23:52:15.738Z,40.47
2019-02-02T23:54:42.049Z,42.37
2019-02-02T23:57:08.637Z,40.87
2019-02-02T23:59:35.936Z,43.40
